sensor_id;sensor_type;location;lat;lon;timestamp;P1;durP1;ratioP1;P2;durP2;ratioP2
5682;SDS011;2864;49.220;8.654;2023-09-07T00:00:59;4.63;;;4.10;;
5682;SDS011;2864;49.220;8.654;2023-09-07T00:03:26;5.63;;;4.83;;
5682;SDS011;2864;49.220;8.654;2023-09-07T00:05:51;4.50;;;4.10;;
5682;SDS011;2864;49.220;8.654;2023-09-07T00:08:17;6.67;;;4.83;;
5682;SDS011;2864;49.220;8.654;2023-09-07T00:10:42;5.10;;;4.60;;
5682;SDS011;2864;49.220;8.654;2023-09-07T00:13:08;6.07;;;4.30;;
5682;SDS011;2864;49.220;8.654;2023-09-07T00:15:37;5.20;;;4.27;;
5682;SDS011;2864;49.220;8.654;2023-09-07T00:18:03;5.73;;;4.53;;
5682;SDS011;2864;49.220;8.654;2023-09-07T00:20:29;5.83;;;4.50;;
5682;SDS011;2864;49.220;8.654;2023-09-07T00:22:55;6.13;;;4.00;;
5682;SDS011;2864;49.220;8.654;2023-09-07T00:25:20;4.57;;;4.17;;
5682;SDS011;2864;49.220;8.654;2023-09-07T00:27:46;6.17;;;4.77;;
5682;SDS011;2864;49.220;8.654;2023-09-07T00:30:12;7.60;;;4.53;;
5682;SDS011;2864;49.220;8.654;2023-09-07T00:32:38;7.77;;;4.80;;
5682;SDS011;2864;49.220;8.654;2023-09-07T00:35:04;6.87;;;4.67;;
5682;SDS011;2864;49.220;8.654;2023-09-07T00:37:30;5.97;;;4.90;;
5682;SDS011;2864;49.220;8.654;2023-09-07T00:39:56;5.37;;;4.40;;
5682;SDS011;2864;49.220;8.654;2023-09-07T00:42:22;5.90;;;4.40;;
5682;SDS011;2864;49.220;8.654;2023-09-07T00:44:47;5.40;;;4.90;;
5682;SDS011;2864;49.220;8.654;2023-09-07T00:47:13;5.97;;;4.40;;
5682;SDS011;2864;49.220;8.654;2023-09-07T00:49:42;5.20;;;4.50;;
5682;SDS011;2864;49.220;8.654;2023-09-07T00:52:08;8.50;;;4.60;;
5682;SDS011;2864;49.220;8.654;2023-09-07T00:54:36;5.57;;;4.60;;
5682;SDS011;2864;49.220;8.654;2023-09-07T00:57:06;5.67;;;4.67;;
5682;SDS011;2864;49.220;8.654;2023-09-07T00:59:32;6.57;;;3.90;;
5682;SDS011;2864;49.220;8.654;2023-09-07T01:01:58;8.23;;;4.40;;
5682;SDS011;2864;49.220;8.654;2023-09-07T01:04:24;4.43;;;4.03;;
5682;SDS011;2864;49.220;8.654;2023-09-07T01:06:56;5.23;;;4.60;;
5682;SDS011;2864;49.220;8.654;2023-09-07T01:09:28;4.80;;;4.20;;
5682;SDS011;2864;49.220;8.654;2023-09-07T01:11:55;4.97;;;4.43;;
5682;SDS011;2864;49.220;8.654;2023-09-07T01:14:21;4.60;;;4.17;;
5682;SDS011;2864;49.220;8.654;2023-09-07T01:16:47;5.37;;;4.33;;
5682;SDS011;2864;49.220;8.654;2023-09-07T01:19:14;5.43;;;4.23;;
5682;SDS011;2864;49.220;8.654;2023-09-07T01:21:40;6.03;;;4.27;;
5682;SDS011;2864;49.220;8.654;2023-09-07T01:24:06;5.17;;;4.50;;
5682;SDS011;2864;49.220;8.654;2023-09-07T01:26:34;4.63;;;4.23;;
5682;SDS011;2864;49.220;8.654;2023-09-07T01:29:03;4.53;;;4.13;;
5682;SDS011;2864;49.220;8.654;2023-09-07T01:31:29;4.10;;;3.70;;
5682;SDS011;2864;49.220;8.654;2023-09-07T01:33:55;6.83;;;4.27;;
5682;SDS011;2864;49.220;8.654;2023-09-07T01:36:20;4.77;;;4.27;;
5682;SDS011;2864;49.220;8.654;2023-09-07T01:38:46;7.17;;;4.10;;
5682;SDS011;2864;49.220;8.654;2023-09-07T01:41:11;6.20;;;4.33;;
5682;SDS011;2864;49.220;8.654;2023-09-07T01:43:37;5.67;;;4.50;;
5682;SDS011;2864;49.220;8.654;2023-09-07T01:46:02;4.63;;;4.10;;
5682;SDS011;2864;49.220;8.654;2023-09-07T01:48:28;4.70;;;4.30;;
5682;SDS011;2864;49.220;8.654;2023-09-07T01:50:53;7.27;;;4.50;;
5682;SDS011;2864;49.220;8.654;2023-09-07T01:53:19;5.00;;;4.50;;
5682;SDS011;2864;49.220;8.654;2023-09-07T01:55:45;5.97;;;4.40;;
5682;SDS011;2864;49.220;8.654;2023-09-07T01:58:11;5.97;;;4.83;;
5682;SDS011;2864;49.220;8.654;2023-09-07T02:00:37;4.83;;;4.33;;
5682;SDS011;2864;49.220;8.654;2023-09-07T02:03:05;4.93;;;3.97;;
5682;SDS011;2864;49.220;8.654;2023-09-07T02:05:31;5.63;;;4.50;;
5682;SDS011;2864;49.220;8.654;2023-09-07T02:07:57;5.70;;;4.20;;
5682;SDS011;2864;49.220;8.654;2023-09-07T02:10:23;5.50;;;3.90;;
5682;SDS011;2864;49.220;8.654;2023-09-07T02:12:49;6.20;;;4.37;;
5682;SDS011;2864;49.220;8.654;2023-09-07T02:15:14;4.93;;;4.30;;
5682;SDS011;2864;49.220;8.654;2023-09-07T02:17:40;4.47;;;4.07;;
5682;SDS011;2864;49.220;8.654;2023-09-07T02:20:10;4.70;;;4.20;;
5682;SDS011;2864;49.220;8.654;2023-09-07T02:22:37;5.17;;;4.40;;
5682;SDS011;2864;49.220;8.654;2023-09-07T02:25:03;4.33;;;3.70;;
5682;SDS011;2864;49.220;8.654;2023-09-07T02:27:30;4.83;;;4.23;;
5682;SDS011;2864;49.220;8.654;2023-09-07T02:30:01;4.43;;;4.03;;
5682;SDS011;2864;49.220;8.654;2023-09-07T02:32:27;4.87;;;4.37;;
5682;SDS011;2864;49.220;8.654;2023-09-07T02:34:53;4.90;;;4.27;;
5682;SDS011;2864;49.220;8.654;2023-09-07T02:37:18;4.20;;;3.83;;
5682;SDS011;2864;49.220;8.654;2023-09-07T02:39:44;5.47;;;3.90;;
5682;SDS011;2864;49.220;8.654;2023-09-07T02:42:10;4.67;;;3.80;;
5682;SDS011;2864;49.220;8.654;2023-09-07T02:44:35;4.43;;;3.83;;
5682;SDS011;2864;49.220;8.654;2023-09-07T02:47:01;6.13;;;3.90;;
5682;SDS011;2864;49.220;8.654;2023-09-07T02:49:27;3.93;;;3.63;;
5682;SDS011;2864;49.220;8.654;2023-09-07T02:51:52;4.83;;;4.00;;
5682;SDS011;2864;49.220;8.654;2023-09-07T02:54:18;5.00;;;3.90;;
5682;SDS011;2864;49.220;8.654;2023-09-07T02:56:43;5.10;;;3.90;;
5682;SDS011;2864;49.220;8.654;2023-09-07T02:59:09;5.00;;;3.97;;
5682;SDS011;2864;49.220;8.654;2023-09-07T03:01:34;4.27;;;3.77;;
5682;SDS011;2864;49.220;8.654;2023-09-07T03:04:00;4.70;;;3.70;;
5682;SDS011;2864;49.220;8.654;2023-09-07T03:06:25;6.17;;;3.93;;
5682;SDS011;2864;49.220;8.654;2023-09-07T03:08:51;4.07;;;3.67;;
5682;SDS011;2864;49.220;8.654;2023-09-07T03:11:17;5.23;;;3.93;;
5682;SDS011;2864;49.220;8.654;2023-09-07T03:13:43;5.63;;;3.67;;
5682;SDS011;2864;49.220;8.654;2023-09-07T03:16:08;4.13;;;3.70;;
5682;SDS011;2864;49.220;8.654;2023-09-07T03:18:34;4.97;;;4.00;;
5682;SDS011;2864;49.220;8.654;2023-09-07T03:21:00;6.90;;;4.30;;
5682;SDS011;2864;49.220;8.654;2023-09-07T03:23:31;5.67;;;4.37;;
5682;SDS011;2864;49.220;8.654;2023-09-07T03:25:57;4.50;;;3.60;;
5682;SDS011;2864;49.220;8.654;2023-09-07T03:28:24;4.00;;;3.70;;
5682;SDS011;2864;49.220;8.654;2023-09-07T03:30:50;7.17;;;3.87;;
5682;SDS011;2864;49.220;8.654;2023-09-07T03:33:16;6.20;;;4.20;;
5682;SDS011;2864;49.220;8.654;2023-09-07T03:35:42;5.27;;;3.97;;
5682;SDS011;2864;49.220;8.654;2023-09-07T03:38:07;5.87;;;4.23;;
5682;SDS011;2864;49.220;8.654;2023-09-07T03:40:33;4.10;;;3.80;;
5682;SDS011;2864;49.220;8.654;2023-09-07T03:42:59;4.70;;;4.13;;
5682;SDS011;2864;49.220;8.654;2023-09-07T03:45:24;4.30;;;3.90;;
5682;SDS011;2864;49.220;8.654;2023-09-07T03:47:50;6.13;;;4.17;;
5682;SDS011;2864;49.220;8.654;2023-09-07T03:50:15;4.70;;;4.20;;
5682;SDS011;2864;49.220;8.654;2023-09-07T03:52:41;4.90;;;4.10;;
5682;SDS011;2864;49.220;8.654;2023-09-07T03:55:07;5.53;;;3.93;;
5682;SDS011;2864;49.220;8.654;2023-09-07T03:57:32;5.13;;;4.37;;
5682;SDS011;2864;49.220;8.654;2023-09-07T03:59:58;4.30;;;3.90;;
5682;SDS011;2864;49.220;8.654;2023-09-07T04:02:24;4.87;;;4.37;;
5682;SDS011;2864;49.220;8.654;2023-09-07T04:04:50;4.80;;;4.30;;
5682;SDS011;2864;49.220;8.654;2023-09-07T04:07:17;4.60;;;3.97;;
5682;SDS011;2864;49.220;8.654;2023-09-07T04:09:43;4.67;;;4.20;;
5682;SDS011;2864;49.220;8.654;2023-09-07T04:12:09;7.67;;;4.27;;
5682;SDS011;2864;49.220;8.654;2023-09-07T04:14:35;4.77;;;4.00;;
5682;SDS011;2864;49.220;8.654;2023-09-07T04:17:01;7.03;;;4.07;;
5682;SDS011;2864;49.220;8.654;2023-09-07T04:19:26;5.03;;;4.23;;
5682;SDS011;2864;49.220;8.654;2023-09-07T04:21:52;4.90;;;4.33;;
5682;SDS011;2864;49.220;8.654;2023-09-07T04:24:17;5.27;;;4.37;;
5682;SDS011;2864;49.220;8.654;2023-09-07T04:26:43;5.33;;;4.80;;
5682;SDS011;2864;49.220;8.654;2023-09-07T04:29:08;5.77;;;4.53;;
5682;SDS011;2864;49.220;8.654;2023-09-07T04:31:35;4.63;;;4.07;;
5682;SDS011;2864;49.220;8.654;2023-09-07T04:34:00;5.50;;;4.93;;
5682;SDS011;2864;49.220;8.654;2023-09-07T04:36:27;5.33;;;4.43;;
5682;SDS011;2864;49.220;8.654;2023-09-07T04:38:53;5.10;;;4.43;;
5682;SDS011;2864;49.220;8.654;2023-09-07T04:41:19;5.87;;;4.83;;
5682;SDS011;2864;49.220;8.654;2023-09-07T04:43:44;5.17;;;4.67;;
5682;SDS011;2864;49.220;8.654;2023-09-07T04:46:10;5.20;;;4.70;;
5682;SDS011;2864;49.220;8.654;2023-09-07T04:48:37;5.03;;;4.50;;
5682;SDS011;2864;49.220;8.654;2023-09-07T04:51:04;6.20;;;4.67;;
5682;SDS011;2864;49.220;8.654;2023-09-07T04:53:32;6.93;;;5.50;;
5682;SDS011;2864;49.220;8.654;2023-09-07T04:55:59;7.60;;;5.07;;
5682;SDS011;2864;49.220;8.654;2023-09-07T04:58:25;6.73;;;4.93;;
5682;SDS011;2864;49.220;8.654;2023-09-07T05:00:51;7.13;;;4.97;;
5682;SDS011;2864;49.220;8.654;2023-09-07T05:03:17;7.20;;;5.00;;
5682;SDS011;2864;49.220;8.654;2023-09-07T05:05:43;6.27;;;5.20;;
5682;SDS011;2864;49.220;8.654;2023-09-07T05:08:09;8.73;;;5.40;;
5682;SDS011;2864;49.220;8.654;2023-09-07T05:10:35;6.83;;;5.17;;
5682;SDS011;2864;49.220;8.654;2023-09-07T05:13:01;5.63;;;4.90;;
5682;SDS011;2864;49.220;8.654;2023-09-07T05:15:27;7.43;;;5.30;;
5682;SDS011;2864;49.220;8.654;2023-09-07T05:17:53;7.43;;;5.23;;
5682;SDS011;2864;49.220;8.654;2023-09-07T05:20:19;10.70;;;5.43;;
5682;SDS011;2864;49.220;8.654;2023-09-07T05:22:45;6.33;;;4.73;;
5682;SDS011;2864;49.220;8.654;2023-09-07T05:25:10;9.67;;;5.77;;
5682;SDS011;2864;49.220;8.654;2023-09-07T05:27:36;11.40;;;5.60;;
5682;SDS011;2864;49.220;8.654;2023-09-07T05:30:03;8.33;;;5.40;;
5682;SDS011;2864;49.220;8.654;2023-09-07T05:32:29;7.03;;;5.07;;
5682;SDS011;2864;49.220;8.654;2023-09-07T05:34:54;8.87;;;5.50;;
5682;SDS011;2864;49.220;8.654;2023-09-07T05:37:20;8.10;;;5.40;;
5682;SDS011;2864;49.220;8.654;2023-09-07T05:39:45;12.50;;;5.47;;
5682;SDS011;2864;49.220;8.654;2023-09-07T05:42:11;9.00;;;5.13;;
5682;SDS011;2864;49.220;8.654;2023-09-07T05:44:37;8.63;;;5.40;;
5682;SDS011;2864;49.220;8.654;2023-09-07T05:47:03;12.77;;;5.57;;
5682;SDS011;2864;49.220;8.654;2023-09-07T05:49:29;10.10;;;5.70;;
5682;SDS011;2864;49.220;8.654;2023-09-07T05:51:55;12.27;;;5.60;;
5682;SDS011;2864;49.220;8.654;2023-09-07T05:54:21;13.50;;;5.40;;
5682;SDS011;2864;49.220;8.654;2023-09-07T05:56:47;10.00;;;5.20;;
5682;SDS011;2864;49.220;8.654;2023-09-07T05:59:12;12.57;;;5.50;;
5682;SDS011;2864;49.220;8.654;2023-09-07T06:01:38;10.63;;;5.57;;
5682;SDS011;2864;49.220;8.654;2023-09-07T06:04:05;17.10;;;5.43;;
5682;SDS011;2864;49.220;8.654;2023-09-07T06:06:31;10.77;;;5.40;;
5682;SDS011;2864;49.220;8.654;2023-09-07T06:08:56;7.73;;;4.70;;
5682;SDS011;2864;49.220;8.654;2023-09-07T06:11:24;9.63;;;5.03;;
5682;SDS011;2864;49.220;8.654;2023-09-07T06:13:49;7.20;;;4.87;;
5682;SDS011;2864;49.220;8.654;2023-09-07T06:19:37;8.67;;;5.00;;
5682;SDS011;2864;49.220;8.654;2023-09-07T06:22:02;7.07;;;4.70;;
5682;SDS011;2864;49.220;8.654;2023-09-07T06:24:28;6.97;;;4.93;;
5682;SDS011;2864;49.220;8.654;2023-09-07T06:26:54;7.60;;;4.60;;
5682;SDS011;2864;49.220;8.654;2023-09-07T06:29:20;6.33;;;4.57;;
5682;SDS011;2864;49.220;8.654;2023-09-07T06:31:45;8.47;;;4.80;;
5682;SDS011;2864;49.220;8.654;2023-09-07T06:34:11;8.93;;;4.33;;
5682;SDS011;2864;49.220;8.654;2023-09-07T06:36:36;7.37;;;4.37;;
5682;SDS011;2864;49.220;8.654;2023-09-07T06:39:02;5.10;;;4.43;;
5682;SDS011;2864;49.220;8.654;2023-09-07T06:41:27;5.97;;;4.60;;
5682;SDS011;2864;49.220;8.654;2023-09-07T06:43:53;9.20;;;4.90;;
5682;SDS011;2864;49.220;8.654;2023-09-07T06:46:18;7.30;;;4.53;;
5682;SDS011;2864;49.220;8.654;2023-09-07T06:48:44;5.60;;;4.37;;
5682;SDS011;2864;49.220;8.654;2023-09-07T06:51:10;5.60;;;4.27;;
5682;SDS011;2864;49.220;8.654;2023-09-07T06:53:35;9.13;;;4.80;;
5682;SDS011;2864;49.220;8.654;2023-09-07T06:56:02;7.20;;;4.73;;
5682;SDS011;2864;49.220;8.654;2023-09-07T06:58:28;6.33;;;4.23;;
5682;SDS011;2864;49.220;8.654;2023-09-07T07:01:00;6.40;;;4.27;;
5682;SDS011;2864;49.220;8.654;2023-09-07T07:03:27;6.40;;;4.10;;
5682;SDS011;2864;49.220;8.654;2023-09-07T07:05:54;4.50;;;3.73;;
5682;SDS011;2864;49.220;8.654;2023-09-07T07:08:20;4.83;;;4.33;;
5682;SDS011;2864;49.220;8.654;2023-09-07T07:10:46;5.47;;;3.87;;
5682;SDS011;2864;49.220;8.654;2023-09-07T07:13:11;5.83;;;4.20;;
5682;SDS011;2864;49.220;8.654;2023-09-07T07:15:37;4.73;;;4.20;;
5682;SDS011;2864;49.220;8.654;2023-09-07T07:18:02;7.03;;;4.60;;
5682;SDS011;2864;49.220;8.654;2023-09-07T07:20:40;4.60;;;3.80;;
5682;SDS011;2864;49.220;8.654;2023-09-07T07:23:06;5.57;;;4.40;;
5682;SDS011;2864;49.220;8.654;2023-09-07T07:25:32;4.37;;;3.93;;
5682;SDS011;2864;49.220;8.654;2023-09-07T07:27:58;5.93;;;3.80;;
5682;SDS011;2864;49.220;8.654;2023-09-07T07:30:28;5.20;;;4.03;;
5682;SDS011;2864;49.220;8.654;2023-09-07T07:32:56;4.20;;;3.80;;
5682;SDS011;2864;49.220;8.654;2023-09-07T07:35:22;6.00;;;4.10;;
5682;SDS011;2864;49.220;8.654;2023-09-07T07:37:49;6.37;;;4.57;;
5682;SDS011;2864;49.220;8.654;2023-09-07T07:40:15;6.53;;;4.17;;
5682;SDS011;2864;49.220;8.654;2023-09-07T07:42:40;12.50;;;6.57;;
5682;SDS011;2864;49.220;8.654;2023-09-07T07:45:06;7.07;;;4.73;;
5682;SDS011;2864;49.220;8.654;2023-09-07T07:47:33;10.13;;;5.67;;
5682;SDS011;2864;49.220;8.654;2023-09-07T07:49:58;9.13;;;4.60;;
5682;SDS011;2864;49.220;8.654;2023-09-07T07:52:24;4.43;;;4.00;;
5682;SDS011;2864;49.220;8.654;2023-09-07T07:54:49;5.00;;;3.90;;
5682;SDS011;2864;49.220;8.654;2023-09-07T07:57:15;5.53;;;3.87;;
5682;SDS011;2864;49.220;8.654;2023-09-07T07:59:40;7.47;;;3.57;;
5682;SDS011;2864;49.220;8.654;2023-09-07T08:02:06;5.27;;;3.70;;
5682;SDS011;2864;49.220;8.654;2023-09-07T08:04:31;4.10;;;3.30;;
5682;SDS011;2864;49.220;8.654;2023-09-07T08:06:58;4.47;;;3.83;;
5682;SDS011;2864;49.220;8.654;2023-09-07T08:09:28;10.20;;;4.00;;
5682;SDS011;2864;49.220;8.654;2023-09-07T08:11:54;6.07;;;3.87;;
5682;SDS011;2864;49.220;8.654;2023-09-07T08:14:21;6.53;;;4.20;;
5682;SDS011;2864;49.220;8.654;2023-09-07T08:16:47;5.70;;;3.83;;
5682;SDS011;2864;49.220;8.654;2023-09-07T08:19:13;7.17;;;4.20;;
5682;SDS011;2864;49.220;8.654;2023-09-07T08:21:39;8.13;;;4.53;;
5682;SDS011;2864;49.220;8.654;2023-09-07T08:24:07;6.43;;;4.10;;
5682;SDS011;2864;49.220;8.654;2023-09-07T08:26:33;8.13;;;5.23;;
5682;SDS011;2864;49.220;8.654;2023-09-07T08:29:00;8.27;;;4.13;;
5682;SDS011;2864;49.220;8.654;2023-09-07T08:31:30;8.10;;;4.07;;
5682;SDS011;2864;49.220;8.654;2023-09-07T08:33:56;5.97;;;4.20;;
5682;SDS011;2864;49.220;8.654;2023-09-07T08:36:22;6.80;;;3.90;;
5682;SDS011;2864;49.220;8.654;2023-09-07T08:38:50;6.90;;;3.83;;
5682;SDS011;2864;49.220;8.654;2023-09-07T08:41:18;4.40;;;3.63;;
5682;SDS011;2864;49.220;8.654;2023-09-07T08:43:45;4.30;;;3.90;;
5682;SDS011;2864;49.220;8.654;2023-09-07T08:46:13;12.30;;;5.83;;
5682;SDS011;2864;49.220;8.654;2023-09-07T08:48:40;7.03;;;4.63;;
5682;SDS011;2864;49.220;8.654;2023-09-07T08:51:08;6.47;;;3.70;;
5682;SDS011;2864;49.220;8.654;2023-09-07T08:53:37;9.20;;;4.53;;
5682;SDS011;2864;49.220;8.654;2023-09-07T08:56:04;4.67;;;3.90;;
5682;SDS011;2864;49.220;8.654;2023-09-07T08:58:30;7.77;;;4.17;;
5682;SDS011;2864;49.220;8.654;2023-09-07T09:00:57;4.57;;;3.97;;
5682;SDS011;2864;49.220;8.654;2023-09-07T09:03:22;4.85;;;4.15;;
5682;SDS011;2864;49.220;8.654;2023-09-07T09:05:48;6.70;;;3.80;;
5682;SDS011;2864;49.220;8.654;2023-09-07T09:08:15;5.40;;;4.20;;
5682;SDS011;2864;49.220;8.654;2023-09-07T09:10:45;4.40;;;3.90;;
5682;SDS011;2864;49.220;8.654;2023-09-07T09:13:11;4.50;;;3.55;;
5682;SDS011;2864;49.220;8.654;2023-09-07T09:15:37;5.55;;;3.72;;
5682;SDS011;2864;49.220;8.654;2023-09-07T09:18:09;4.47;;;4.07;;
5682;SDS011;2864;49.220;8.654;2023-09-07T09:20:37;4.38;;;3.72;;
5682;SDS011;2864;49.220;8.654;2023-09-07T09:23:03;5.80;;;3.70;;
5682;SDS011;2864;49.220;8.654;2023-09-07T09:25:30;4.53;;;4.13;;
5682;SDS011;2864;49.220;8.654;2023-09-07T09:27:56;6.32;;;3.80;;
5682;SDS011;2864;49.220;8.654;2023-09-07T09:30:22;5.35;;;3.83;;
5682;SDS011;2864;49.220;8.654;2023-09-07T09:32:48;6.15;;;3.60;;
5682;SDS011;2864;49.220;8.654;2023-09-07T09:35:16;5.10;;;3.60;;
5682;SDS011;2864;49.220;8.654;2023-09-07T09:37:46;5.47;;;3.63;;
5682;SDS011;2864;49.220;8.654;2023-09-07T09:40:14;4.68;;;3.92;;
5682;SDS011;2864;49.220;8.654;2023-09-07T09:42:43;6.75;;;3.55;;
5682;SDS011;2864;49.220;8.654;2023-09-07T09:45:09;5.75;;;3.63;;
5682;SDS011;2864;49.220;8.654;2023-09-07T09:47:40;7.53;;;3.58;;
5682;SDS011;2864;49.220;8.654;2023-09-07T09:50:07;4.03;;;3.65;;
5682;SDS011;2864;49.220;8.654;2023-09-07T09:52:34;5.45;;;4.05;;
5682;SDS011;2864;49.220;8.654;2023-09-07T09:55:01;11.07;;;4.07;;
5682;SDS011;2864;49.220;8.654;2023-09-07T09:57:33;5.40;;;3.75;;
5682;SDS011;2864;49.220;8.654;2023-09-07T09:59:59;4.70;;;3.80;;
5682;SDS011;2864;49.220;8.654;2023-09-07T10:02:35;5.72;;;3.60;;
5682;SDS011;2864;49.220;8.654;2023-09-07T10:05:02;6.32;;;4.20;;
5682;SDS011;2864;49.220;8.654;2023-09-07T10:07:41;6.95;;;3.88;;
5682;SDS011;2864;49.220;8.654;2023-09-07T10:10:14;4.80;;;4.10;;
5682;SDS011;2864;49.220;8.654;2023-09-07T10:12:43;4.80;;;4.30;;
5682;SDS011;2864;49.220;8.654;2023-09-07T10:15:20;5.97;;;3.97;;
5682;SDS011;2864;49.220;8.654;2023-09-07T10:17:49;4.10;;;3.70;;
5682;SDS011;2864;49.220;8.654;2023-09-07T10:20:16;9.60;;;4.30;;
5682;SDS011;2864;49.220;8.654;2023-09-07T10:22:43;4.28;;;3.88;;
5682;SDS011;2864;49.220;8.654;2023-09-07T10:25:18;7.75;;;3.92;;
5682;SDS011;2864;49.220;8.654;2023-09-07T10:27:45;6.95;;;3.70;;
5682;SDS011;2864;49.220;8.654;2023-09-07T10:30:12;6.35;;;3.55;;
5682;SDS011;2864;49.220;8.654;2023-09-07T10:32:38;4.70;;;3.42;;
5682;SDS011;2864;49.220;8.654;2023-09-07T10:35:12;4.63;;;3.70;;
5682;SDS011;2864;49.220;8.654;2023-09-07T10:37:39;5.45;;;4.00;;
5682;SDS011;2864;49.220;8.654;2023-09-07T10:40:06;10.70;;;4.18;;
5682;SDS011;2864;49.220;8.654;2023-09-07T10:42:36;4.28;;;3.88;;
5682;SDS011;2864;49.220;8.654;2023-09-07T10:45:13;7.75;;;4.65;;
5682;SDS011;2864;49.220;8.654;2023-09-07T10:47:44;4.60;;;3.78;;
5682;SDS011;2864;49.220;8.654;2023-09-07T10:50:14;6.43;;;3.80;;
5682;SDS011;2864;49.220;8.654;2023-09-07T10:52:40;5.55;;;3.63;;
5682;SDS011;2864;49.220;8.654;2023-09-07T10:55:06;6.13;;;4.15;;
5682;SDS011;2864;49.220;8.654;2023-09-07T10:57:41;9.40;;;4.85;;
5682;SDS011;2864;49.220;8.654;2023-09-07T11:00:08;4.80;;;4.10;;
5682;SDS011;2864;49.220;8.654;2023-09-07T11:02:36;5.15;;;3.95;;
5682;SDS011;2864;49.220;8.654;2023-09-07T11:05:02;9.48;;;4.25;;
5682;SDS011;2864;49.220;8.654;2023-09-07T11:07:28;4.38;;;3.50;;
5682;SDS011;2864;49.220;8.654;2023-09-07T11:09:54;4.40;;;3.90;;
5682;SDS011;2864;49.220;8.654;2023-09-07T11:12:20;5.53;;;3.90;;
5682;SDS011;2864;49.220;8.654;2023-09-07T11:14:49;4.32;;;3.78;;
5682;SDS011;2864;49.220;8.654;2023-09-07T11:17:16;3.50;;;3.20;;
5682;SDS011;2864;49.220;8.654;2023-09-07T11:19:42;7.15;;;3.63;;
5682;SDS011;2864;49.220;8.654;2023-09-07T11:22:11;8.38;;;3.60;;
5682;SDS011;2864;49.220;8.654;2023-09-07T11:24:37;3.53;;;3.22;;
5682;SDS011;2864;49.220;8.654;2023-09-07T11:27:03;5.22;;;3.40;;
5682;SDS011;2864;49.220;8.654;2023-09-07T11:29:30;4.25;;;3.10;;
5682;SDS011;2864;49.220;8.654;2023-09-07T11:32:06;6.22;;;3.55;;
5682;SDS011;2864;49.220;8.654;2023-09-07T11:34:35;3.45;;;3.10;;
5682;SDS011;2864;49.220;8.654;2023-09-07T11:37:13;5.93;;;3.10;;
5682;SDS011;2864;49.220;8.654;2023-09-07T11:39:39;3.45;;;3.15;;
5682;SDS011;2864;49.220;8.654;2023-09-07T11:42:04;4.85;;;3.30;;
5682;SDS011;2864;49.220;8.654;2023-09-07T11:44:30;4.40;;;3.47;;
5682;SDS011;2864;49.220;8.654;2023-09-07T11:46:55;3.88;;;3.28;;
5682;SDS011;2864;49.220;8.654;2023-09-07T11:49:21;5.47;;;3.10;;
5682;SDS011;2864;49.220;8.654;2023-09-07T11:51:47;7.15;;;3.22;;
5682;SDS011;2864;49.220;8.654;2023-09-07T11:54:12;4.80;;;3.10;;
5682;SDS011;2864;49.220;8.654;2023-09-07T11:56:38;5.10;;;3.17;;
5682;SDS011;2864;49.220;8.654;2023-09-07T11:59:07;5.90;;;3.25;;
5682;SDS011;2864;49.220;8.654;2023-09-07T12:04:56;4.03;;;3.63;;
5682;SDS011;2864;49.220;8.654;2023-09-07T12:07:22;6.95;;;3.35;;
5682;SDS011;2864;49.220;8.654;2023-09-07T12:09:47;4.85;;;3.40;;
5682;SDS011;2864;49.220;8.654;2023-09-07T12:12:13;5.78;;;3.05;;
5682;SDS011;2864;49.220;8.654;2023-09-07T12:14:39;3.88;;;3.22;;
5682;SDS011;2864;49.220;8.654;2023-09-07T12:17:04;3.83;;;3.13;;
5682;SDS011;2864;49.220;8.654;2023-09-07T12:19:30;3.85;;;3.17;;
5682;SDS011;2864;49.220;8.654;2023-09-07T12:21:56;3.38;;;3.08;;
5682;SDS011;2864;49.220;8.654;2023-09-07T12:24:21;6.20;;;3.22;;
5682;SDS011;2864;49.220;8.654;2023-09-07T12:26:47;3.90;;;3.28;;
5682;SDS011;2864;49.220;8.654;2023-09-07T12:29:12;6.20;;;3.47;;
5682;SDS011;2864;49.220;8.654;2023-09-07T12:31:38;5.72;;;3.50;;
5682;SDS011;2864;49.220;8.654;2023-09-07T12:34:04;7.22;;;3.22;;
5682;SDS011;2864;49.220;8.654;2023-09-07T12:36:30;10.23;;;3.90;;
5682;SDS011;2864;49.220;8.654;2023-09-07T12:38:55;6.53;;;3.53;;
5682;SDS011;2864;49.220;8.654;2023-09-07T12:41:26;5.20;;;3.20;;
5682;SDS011;2864;49.220;8.654;2023-09-07T12:43:53;8.38;;;3.22;;
5682;SDS011;2864;49.220;8.654;2023-09-07T12:46:19;4.38;;;3.08;;
5682;SDS011;2864;49.220;8.654;2023-09-07T12:48:44;4.35;;;3.10;;
5682;SDS011;2864;49.220;8.654;2023-09-07T12:51:10;3.90;;;3.47;;
5682;SDS011;2864;49.220;8.654;2023-09-07T12:53:36;5.60;;;3.05;;
5682;SDS011;2864;49.220;8.654;2023-09-07T12:56:01;3.83;;;3.00;;
5682;SDS011;2864;49.220;8.654;2023-09-07T12:58:28;4.80;;;3.30;;
5682;SDS011;2864;49.220;8.654;2023-09-07T13:00:53;4.20;;;2.95;;
5682;SDS011;2864;49.220;8.654;2023-09-07T13:03:19;4.82;;;3.42;;
5682;SDS011;2864;49.220;8.654;2023-09-07T13:05:45;3.72;;;3.00;;
5682;SDS011;2864;49.220;8.654;2023-09-07T13:08:11;5.47;;;3.45;;
5682;SDS011;2864;49.220;8.654;2023-09-07T13:10:37;4.35;;;3.22;;
5682;SDS011;2864;49.220;8.654;2023-09-07T13:13:02;4.82;;;3.10;;
5682;SDS011;2864;49.220;8.654;2023-09-07T13:15:28;5.57;;;3.20;;
5682;SDS011;2864;49.220;8.654;2023-09-07T13:17:54;3.40;;;3.10;;
5682;SDS011;2864;49.220;8.654;2023-09-07T13:20:19;6.60;;;2.97;;
5682;SDS011;2864;49.220;8.654;2023-09-07T13:22:45;4.88;;;3.10;;
5682;SDS011;2864;49.220;8.654;2023-09-07T13:25:13;4.70;;;3.00;;
5682;SDS011;2864;49.220;8.654;2023-09-07T13:27:39;3.60;;;2.90;;
5682;SDS011;2864;49.220;8.654;2023-09-07T13:30:05;4.90;;;2.90;;
5682;SDS011;2864;49.220;8.654;2023-09-07T13:32:33;5.32;;;2.90;;
5682;SDS011;2864;49.220;8.654;2023-09-07T13:34:59;3.20;;;2.90;;
5682;SDS011;2864;49.220;8.654;2023-09-07T13:37:24;5.88;;;2.85;;
5682;SDS011;2864;49.220;8.654;2023-09-07T13:39:50;3.92;;;2.80;;
5682;SDS011;2864;49.220;8.654;2023-09-07T13:42:16;4.70;;;3.03;;
5682;SDS011;2864;49.220;8.654;2023-09-07T13:44:41;5.60;;;3.30;;
5682;SDS011;2864;49.220;8.654;2023-09-07T13:47:07;3.90;;;2.70;;
5682;SDS011;2864;49.220;8.654;2023-09-07T13:49:35;5.07;;;2.85;;
5682;SDS011;2864;49.220;8.654;2023-09-07T13:52:00;5.82;;;3.15;;
5682;SDS011;2864;49.220;8.654;2023-09-07T13:54:26;4.10;;;3.28;;
5682;SDS011;2864;49.220;8.654;2023-09-07T13:56:51;4.32;;;2.78;;
5682;SDS011;2864;49.220;8.654;2023-09-07T13:59:17;3.90;;;3.25;;
5682;SDS011;2864;49.220;8.654;2023-09-07T14:05:05;5.07;;;3.00;;
5682;SDS011;2864;49.220;8.654;2023-09-07T14:07:32;2.95;;;2.72;;
5682;SDS011;2864;49.220;8.654;2023-09-07T14:09:58;4.43;;;2.90;;
5682;SDS011;2864;49.220;8.654;2023-09-07T14:12:24;7.63;;;3.47;;
5682;SDS011;2864;49.220;8.654;2023-09-07T14:14:49;5.50;;;3.42;;
5682;SDS011;2864;49.220;8.654;2023-09-07T14:17:15;3.80;;;3.20;;
5682;SDS011;2864;49.220;8.654;2023-09-07T14:19:41;4.10;;;3.30;;
5682;SDS011;2864;49.220;8.654;2023-09-07T14:22:06;4.22;;;3.22;;
5682;SDS011;2864;49.220;8.654;2023-09-07T14:24:32;4.25;;;3.25;;
5682;SDS011;2864;49.220;8.654;2023-09-07T14:26:57;4.40;;;3.38;;
5682;SDS011;2864;49.220;8.654;2023-09-07T14:29:23;3.60;;;2.80;;
5682;SDS011;2864;49.220;8.654;2023-09-07T14:31:49;3.85;;;3.00;;
5682;SDS011;2864;49.220;8.654;2023-09-07T14:34:14;4.70;;;3.15;;
5682;SDS011;2864;49.220;8.654;2023-09-07T14:36:40;3.95;;;3.13;;
5682;SDS011;2864;49.220;8.654;2023-09-07T14:39:05;4.88;;;3.15;;
5682;SDS011;2864;49.220;8.654;2023-09-07T14:41:32;7.95;;;2.90;;
5682;SDS011;2864;49.220;8.654;2023-09-07T14:43:59;3.78;;;2.95;;
5682;SDS011;2864;49.220;8.654;2023-09-07T14:46:25;5.25;;;3.28;;
5682;SDS011;2864;49.220;8.654;2023-09-07T14:48:50;5.50;;;3.00;;
5682;SDS011;2864;49.220;8.654;2023-09-07T14:51:17;3.75;;;2.97;;
5682;SDS011;2864;49.220;8.654;2023-09-07T14:53:42;3.88;;;3.00;;
5682;SDS011;2864;49.220;8.654;2023-09-07T14:56:09;4.57;;;3.22;;
5682;SDS011;2864;49.220;8.654;2023-09-07T14:58:35;6.40;;;3.28;;
5682;SDS011;2864;49.220;8.654;2023-09-07T15:01:00;3.08;;;2.65;;
5682;SDS011;2864;49.220;8.654;2023-09-07T15:03:26;6.88;;;3.30;;
5682;SDS011;2864;49.220;8.654;2023-09-07T15:05:51;3.80;;;2.95;;
5682;SDS011;2864;49.220;8.654;2023-09-07T15:08:17;7.40;;;3.42;;
5682;SDS011;2864;49.220;8.654;2023-09-07T15:10:43;4.32;;;2.92;;
5682;SDS011;2864;49.220;8.654;2023-09-07T15:13:08;3.60;;;2.90;;
5682;SDS011;2864;49.220;8.654;2023-09-07T15:15:35;7.55;;;3.45;;
5682;SDS011;2864;49.220;8.654;2023-09-07T15:18:05;4.32;;;2.88;;
5682;SDS011;2864;49.220;8.654;2023-09-07T15:20:31;4.57;;;3.10;;